sensor_id;sensor_type;location;lat;lon;timestamp;P1;durP1;ratioP1;P2;durP2;ratioP2
44462;SDS011;30170;52.190;8.702;2023-07-09T00:02:02;10.13;;;7.30;;
44462;SDS011;30170;52.190;8.702;2023-07-09T00:04:29;10.30;;;7.57;;
44462;SDS011;30170;52.190;8.702;2023-07-09T00:07:00;11.55;;;7.85;;
44462;SDS011;30170;52.190;8.702;2023-07-09T00:09:30;10.55;;;7.65;;
44462;SDS011;30170;52.190;8.702;2023-07-09T00:11:57;11.55;;;7.45;;
44462;SDS011;30170;52.190;8.702;2023-07-09T00:14:24;8.93;;;7.05;;
44462;SDS011;30170;52.190;8.702;2023-07-09T00:16:51;9.93;;;7.70;;
44462;SDS011;30170;52.190;8.702;2023-07-09T00:19:18;11.15;;;8.18;;
44462;SDS011;30170;52.190;8.702;2023-07-09T00:21:47;11.57;;;7.43;;
44462;SDS011;30170;52.190;8.702;2023-07-09T00:24:15;14.32;;;8.05;;
44462;SDS011;30170;52.190;8.702;2023-07-09T00:26:42;9.15;;;7.63;;
44462;SDS011;30170;52.190;8.702;2023-07-09T00:29:12;11.88;;;8.38;;
44462;SDS011;30170;52.190;8.702;2023-07-09T00:31:39;10.68;;;7.78;;
44462;SDS011;30170;52.190;8.702;2023-07-09T00:34:13;9.25;;;7.72;;
44462;SDS011;30170;52.190;8.702;2023-07-09T00:36:43;11.65;;;7.97;;
44462;SDS011;30170;52.190;8.702;2023-07-09T00:39:17;12.82;;;7.60;;
44462;SDS011;30170;52.190;8.702;2023-07-09T00:41:47;9.95;;;7.90;;
44462;SDS011;30170;52.190;8.702;2023-07-09T00:44:26;10.85;;;7.80;;
44462;SDS011;30170;52.190;8.702;2023-07-09T00:49:29;12.43;;;8.02;;
44462;SDS011;30170;52.190;8.702;2023-07-09T00:51:58;9.43;;;6.60;;
44462;SDS011;30170;52.190;8.702;2023-07-09T00:54:30;10.20;;;7.55;;
44462;SDS011;30170;52.190;8.702;2023-07-09T00:57:10;12.82;;;8.27;;
44462;SDS011;30170;52.190;8.702;2023-07-09T00:59:44;13.38;;;8.45;;
44462;SDS011;30170;52.190;8.702;2023-07-09T01:02:14;13.43;;;8.82;;
44462;SDS011;30170;52.190;8.702;2023-07-09T01:04:41;11.57;;;8.30;;
44462;SDS011;30170;52.190;8.702;2023-07-09T01:07:08;11.38;;;7.80;;
44462;SDS011;30170;52.190;8.702;2023-07-09T01:09:35;10.75;;;8.00;;
44462;SDS011;30170;52.190;8.702;2023-07-09T01:12:07;14.25;;;7.88;;
44462;SDS011;30170;52.190;8.702;2023-07-09T01:14:36;11.07;;;8.00;;
44462;SDS011;30170;52.190;8.702;2023-07-09T01:17:05;10.05;;;7.15;;
44462;SDS011;30170;52.190;8.702;2023-07-09T01:19:38;9.68;;;7.75;;
44462;SDS011;30170;52.190;8.702;2023-07-09T01:22:19;14.18;;;8.02;;
44462;SDS011;30170;52.190;8.702;2023-07-09T01:25:06;11.48;;;8.27;;
44462;SDS011;30170;52.190;8.702;2023-07-09T01:30:09;9.52;;;7.95;;
44462;SDS011;30170;52.190;8.702;2023-07-09T01:32:38;14.60;;;8.13;;
44462;SDS011;30170;52.190;8.702;2023-07-09T01:35:05;11.93;;;8.18;;
44462;SDS011;30170;52.190;8.702;2023-07-09T01:37:35;11.18;;;7.93;;
44462;SDS011;30170;52.190;8.702;2023-07-09T01:40:03;12.35;;;8.02;;
44462;SDS011;30170;52.190;8.702;2023-07-09T01:42:52;12.30;;;7.72;;
44462;SDS011;30170;52.190;8.702;2023-07-09T01:45:19;10.48;;;7.50;;
44462;SDS011;30170;52.190;8.702;2023-07-09T01:47:46;12.00;;;7.55;;
44462;SDS011;30170;52.190;8.702;2023-07-09T01:50:13;11.55;;;7.50;;
44462;SDS011;30170;52.190;8.702;2023-07-09T01:52:43;10.65;;;7.53;;
44462;SDS011;30170;52.190;8.702;2023-07-09T01:55:11;10.65;;;7.28;;
44462;SDS011;30170;52.190;8.702;2023-07-09T01:57:39;10.27;;;7.53;;
44462;SDS011;30170;52.190;8.702;2023-07-09T02:00:09;9.60;;;7.55;;
44462;SDS011;30170;52.190;8.702;2023-07-09T02:02:40;8.13;;;6.65;;
44462;SDS011;30170;52.190;8.702;2023-07-09T02:05:13;9.48;;;7.00;;
44462;SDS011;30170;52.190;8.702;2023-07-09T02:07:42;11.18;;;6.90;;
44462;SDS011;30170;52.190;8.702;2023-07-09T02:10:10;10.35;;;7.50;;
44462;SDS011;30170;52.190;8.702;2023-07-09T02:12:37;11.10;;;7.10;;
44462;SDS011;30170;52.190;8.702;2023-07-09T02:15:04;8.77;;;7.05;;
44462;SDS011;30170;52.190;8.702;2023-07-09T02:17:32;10.48;;;7.38;;
44462;SDS011;30170;52.190;8.702;2023-07-09T02:19:59;10.85;;;7.00;;
44462;SDS011;30170;52.190;8.702;2023-07-09T02:22:25;8.73;;;6.70;;
44462;SDS011;30170;52.190;8.702;2023-07-09T02:24:52;12.30;;;8.00;;
44462;SDS011;30170;52.190;8.702;2023-07-09T02:27:20;10.25;;;7.32;;
44462;SDS011;30170;52.190;8.702;2023-07-09T02:29:48;9.80;;;7.13;;
44462;SDS011;30170;52.190;8.702;2023-07-09T02:32:25;12.18;;;8.23;;
44462;SDS011;30170;52.190;8.702;2023-07-09T02:34:53;10.88;;;8.20;;
44462;SDS011;30170;52.190;8.702;2023-07-09T02:37:22;9.80;;;8.10;;
44462;SDS011;30170;52.190;8.702;2023-07-09T02:39:50;9.30;;;7.35;;
44462;SDS011;30170;52.190;8.702;2023-07-09T02:42:18;10.73;;;8.18;;
44462;SDS011;30170;52.190;8.702;2023-07-09T02:44:46;13.98;;;9.02;;
44462;SDS011;30170;52.190;8.702;2023-07-09T02:47:13;12.43;;;8.50;;
44462;SDS011;30170;52.190;8.702;2023-07-09T02:49:40;13.23;;;8.13;;
44462;SDS011;30170;52.190;8.702;2023-07-09T02:52:08;11.23;;;8.57;;
44462;SDS011;30170;52.190;8.702;2023-07-09T02:54:35;12.20;;;9.48;;
44462;SDS011;30170;52.190;8.702;2023-07-09T02:57:02;13.43;;;11.38;;
44462;SDS011;30170;52.190;8.702;2023-07-09T02:59:29;15.77;;;11.15;;
44462;SDS011;30170;52.190;8.702;2023-07-09T03:01:56;14.25;;;11.30;;
44462;SDS011;30170;52.190;8.702;2023-07-09T03:04:23;13.82;;;10.18;;
44462;SDS011;30170;52.190;8.702;2023-07-09T03:06:51;17.00;;;12.40;;
44462;SDS011;30170;52.190;8.702;2023-07-09T03:09:19;22.63;;;13.27;;
44462;SDS011;30170;52.190;8.702;2023-07-09T03:11:46;17.25;;;13.55;;
44462;SDS011;30170;52.190;8.702;2023-07-09T03:14:15;20.05;;;13.27;;
44462;SDS011;30170;52.190;8.702;2023-07-09T03:16:42;17.40;;;13.60;;
44462;SDS011;30170;52.190;8.702;2023-07-09T03:19:10;16.33;;;13.30;;
44462;SDS011;30170;52.190;8.702;2023-07-09T03:21:37;19.73;;;12.50;;
44462;SDS011;30170;52.190;8.702;2023-07-09T03:24:04;14.57;;;12.40;;
44462;SDS011;30170;52.190;8.702;2023-07-09T03:26:31;15.20;;;12.23;;
44462;SDS011;30170;52.190;8.702;2023-07-09T03:28:58;13.75;;;11.43;;
44462;SDS011;30170;52.190;8.702;2023-07-09T03:31:25;14.70;;;11.50;;
44462;SDS011;30170;52.190;8.702;2023-07-09T03:33:52;14.07;;;10.05;;
44462;SDS011;30170;52.190;8.702;2023-07-09T03:36:20;14.10;;;11.40;;
44462;SDS011;30170;52.190;8.702;2023-07-09T03:38:47;14.05;;;11.10;;
44462;SDS011;30170;52.190;8.702;2023-07-09T03:41:15;16.33;;;11.60;;
44462;SDS011;30170;52.190;8.702;2023-07-09T03:43:41;15.88;;;10.35;;
44462;SDS011;30170;52.190;8.702;2023-07-09T03:46:09;16.45;;;11.82;;
44462;SDS011;30170;52.190;8.702;2023-07-09T03:48:36;16.98;;;11.18;;
44462;SDS011;30170;52.190;8.702;2023-07-09T03:51:03;19.15;;;10.68;;
44462;SDS011;30170;52.190;8.702;2023-07-09T03:53:31;14.57;;;10.55;;
44462;SDS011;30170;52.190;8.702;2023-07-09T03:56:01;13.65;;;10.80;;
44462;SDS011;30170;52.190;8.702;2023-07-09T03:58:42;12.50;;;9.55;;
44462;SDS011;30170;52.190;8.702;2023-07-09T04:01:09;14.05;;;10.13;;
44462;SDS011;30170;52.190;8.702;2023-07-09T04:03:36;13.02;;;9.23;;
44462;SDS011;30170;52.190;8.702;2023-07-09T04:06:03;12.52;;;9.43;;
44462;SDS011;30170;52.190;8.702;2023-07-09T04:08:31;11.63;;;9.52;;
44462;SDS011;30170;52.190;8.702;2023-07-09T04:11:01;13.05;;;8.93;;
44462;SDS011;30170;52.190;8.702;2023-07-09T04:13:29;9.73;;;8.23;;
44462;SDS011;30170;52.190;8.702;2023-07-09T04:15:56;14.75;;;9.65;;
44462;SDS011;30170;52.190;8.702;2023-07-09T04:18:23;11.32;;;8.50;;
44462;SDS011;30170;52.190;8.702;2023-07-09T04:20:51;12.80;;;9.27;;
44462;SDS011;30170;52.190;8.702;2023-07-09T04:23:18;14.00;;;10.45;;
44462;SDS011;30170;52.190;8.702;2023-07-09T04:25:45;14.18;;;10.70;;
44462;SDS011;30170;52.190;8.702;2023-07-09T04:28:12;15.45;;;9.95;;
44462;SDS011;30170;52.190;8.702;2023-07-09T04:30:45;12.40;;;8.93;;
44462;SDS011;30170;52.190;8.702;2023-07-09T04:33:15;13.45;;;9.70;;
44462;SDS011;30170;52.190;8.702;2023-07-09T04:35:45;11.75;;;9.23;;
44462;SDS011;30170;52.190;8.702;2023-07-09T04:38:12;11.20;;;8.25;;
44462;SDS011;30170;52.190;8.702;2023-07-09T04:40:40;15.68;;;8.95;;
44462;SDS011;30170;52.190;8.702;2023-07-09T04:43:09;11.32;;;8.20;;
44462;SDS011;30170;52.190;8.702;2023-07-09T04:45:39;10.63;;;8.98;;
44462;SDS011;30170;52.190;8.702;2023-07-09T04:48:09;11.77;;;8.80;;
44462;SDS011;30170;52.190;8.702;2023-07-09T04:50:39;13.00;;;8.88;;
44462;SDS011;30170;52.190;8.702;2023-07-09T04:53:07;13.38;;;9.32;;
44462;SDS011;30170;52.190;8.702;2023-07-09T04:55:34;12.70;;;9.88;;
44462;SDS011;30170;52.190;8.702;2023-07-09T04:58:01;11.82;;;9.68;;
44462;SDS011;30170;52.190;8.702;2023-07-09T05:00:27;12.55;;;9.60;;
44462;SDS011;30170;52.190;8.702;2023-07-09T05:02:57;12.32;;;9.65;;
44462;SDS011;30170;52.190;8.702;2023-07-09T05:05:24;13.18;;;9.68;;
44462;SDS011;30170;52.190;8.702;2023-07-09T05:07:51;13.10;;;10.20;;
44462;SDS011;30170;52.190;8.702;2023-07-09T05:10:18;11.38;;;8.68;;
44462;SDS011;30170;52.190;8.702;2023-07-09T05:12:49;13.82;;;10.25;;
44462;SDS011;30170;52.190;8.702;2023-07-09T05:15:17;12.32;;;10.20;;
44462;SDS011;30170;52.190;8.702;2023-07-09T05:20:31;11.30;;;8.60;;
44462;SDS011;30170;52.190;8.702;2023-07-09T05:22:58;16.00;;;9.82;;
44462;SDS011;30170;52.190;8.702;2023-07-09T05:25:26;13.13;;;9.80;;
44462;SDS011;30170;52.190;8.702;2023-07-09T05:27:52;14.30;;;9.35;;
44462;SDS011;30170;52.190;8.702;2023-07-09T05:30:19;12.82;;;9.00;;
44462;SDS011;30170;52.190;8.702;2023-07-09T05:32:50;11.98;;;8.88;;
44462;SDS011;30170;52.190;8.702;2023-07-09T05:35:16;11.65;;;8.70;;
44462;SDS011;30170;52.190;8.702;2023-07-09T05:37:43;11.25;;;8.38;;
44462;SDS011;30170;52.190;8.702;2023-07-09T05:40:13;11.45;;;9.02;;
44462;SDS011;30170;52.190;8.702;2023-07-09T05:42:39;12.45;;;8.55;;
44462;SDS011;30170;52.190;8.702;2023-07-09T05:45:06;12.15;;;8.68;;
44462;SDS011;30170;52.190;8.702;2023-07-09T05:47:34;12.20;;;8.13;;
44462;SDS011;30170;52.190;8.702;2023-07-09T05:50:00;11.68;;;7.78;;
44462;SDS011;30170;52.190;8.702;2023-07-09T05:52:27;10.75;;;7.93;;
44462;SDS011;30170;52.190;8.702;2023-07-09T05:54:57;10.98;;;7.50;;
44462;SDS011;30170;52.190;8.702;2023-07-09T05:57:25;9.77;;;7.38;;
44462;SDS011;30170;52.190;8.702;2023-07-09T05:59:53;10.30;;;7.40;;
44462;SDS011;30170;52.190;8.702;2023-07-09T06:02:20;11.38;;;7.32;;
44462;SDS011;30170;52.190;8.702;2023-07-09T06:04:47;11.95;;;8.18;;
44462;SDS011;30170;52.190;8.702;2023-07-09T06:07:17;9.85;;;7.32;;
44462;SDS011;30170;52.190;8.702;2023-07-09T06:09:44;11.35;;;7.68;;
44462;SDS011;30170;52.190;8.702;2023-07-09T06:12:12;11.30;;;7.60;;
44462;SDS011;30170;52.190;8.702;2023-07-09T06:14:39;11.93;;;8.10;;
44462;SDS011;30170;52.190;8.702;2023-07-09T06:17:06;12.02;;;7.55;;
44462;SDS011;30170;52.190;8.702;2023-07-09T06:19:32;10.65;;;6.93;;
44462;SDS011;30170;52.190;8.702;2023-07-09T06:21:59;10.70;;;6.85;;
44462;SDS011;30170;52.190;8.702;2023-07-09T06:24:26;12.05;;;6.72;;
44462;SDS011;30170;52.190;8.702;2023-07-09T06:26:53;9.05;;;6.53;;
44462;SDS011;30170;52.190;8.702;2023-07-09T06:29:20;11.45;;;6.50;;
44462;SDS011;30170;52.190;8.702;2023-07-09T06:31:47;7.90;;;6.68;;
44462;SDS011;30170;52.190;8.702;2023-07-09T06:34:13;12.55;;;7.47;;
44462;SDS011;30170;52.190;8.702;2023-07-09T06:36:40;8.27;;;6.05;;
44462;SDS011;30170;52.190;8.702;2023-07-09T06:39:09;13.77;;;6.40;;
44462;SDS011;30170;52.190;8.702;2023-07-09T06:41:37;10.90;;;7.20;;
44462;SDS011;30170;52.190;8.702;2023-07-09T06:44:08;13.32;;;7.07;;
44462;SDS011;30170;52.190;8.702;2023-07-09T06:46:36;8.55;;;7.07;;
44462;SDS011;30170;52.190;8.702;2023-07-09T06:49:03;10.15;;;6.53;;
44462;SDS011;30170;52.190;8.702;2023-07-09T06:51:32;10.13;;;6.13;;
44462;SDS011;30170;52.190;8.702;2023-07-09T06:53:59;9.00;;;6.18;;
44462;SDS011;30170;52.190;8.702;2023-07-09T06:56:26;11.30;;;6.55;;
44462;SDS011;30170;52.190;8.702;2023-07-09T06:58:53;9.88;;;6.45;;
44462;SDS011;30170;52.190;8.702;2023-07-09T07:01:20;7.95;;;5.82;;
44462;SDS011;30170;52.190;8.702;2023-07-09T07:03:47;8.35;;;5.70;;
44462;SDS011;30170;52.190;8.702;2023-07-09T07:06:14;8.48;;;6.07;;
44462;SDS011;30170;52.190;8.702;2023-07-09T07:08:42;9.43;;;5.75;;
44462;SDS011;30170;52.190;8.702;2023-07-09T07:11:09;9.68;;;6.25;;
44462;SDS011;30170;52.190;8.702;2023-07-09T07:13:39;8.13;;;6.05;;
44462;SDS011;30170;52.190;8.702;2023-07-09T07:16:10;11.32;;;6.57;;
44462;SDS011;30170;52.190;8.702;2023-07-09T07:18:38;7.47;;;5.90;;
44462;SDS011;30170;52.190;8.702;2023-07-09T07:21:11;7.97;;;5.75;;
44462;SDS011;30170;52.190;8.702;2023-07-09T07:23:38;8.57;;;5.90;;
44462;SDS011;30170;52.190;8.702;2023-07-09T07:26:05;8.60;;;6.03;;
44462;SDS011;30170;52.190;8.702;2023-07-09T07:28:34;9.27;;;5.97;;
44462;SDS011;30170;52.190;8.702;2023-07-09T07:31:02;8.23;;;5.90;;
44462;SDS011;30170;52.190;8.702;2023-07-09T07:33:31;9.27;;;6.35;;
44462;SDS011;30170;52.190;8.702;2023-07-09T07:35:58;8.95;;;5.68;;
44462;SDS011;30170;52.190;8.702;2023-07-09T07:38:44;11.48;;;5.88;;
44462;SDS011;30170;52.190;8.702;2023-07-09T07:41:12;8.38;;;5.97;;
44462;SDS011;30170;52.190;8.702;2023-07-09T07:43:42;9.45;;;6.63;;
44462;SDS011;30170;52.190;8.702;2023-07-09T07:46:08;11.32;;;6.25;;
44462;SDS011;30170;52.190;8.702;2023-07-09T07:48:35;7.95;;;5.75;;
44462;SDS011;30170;52.190;8.702;2023-07-09T07:51:03;10.30;;;5.97;;
44462;SDS011;30170;52.190;8.702;2023-07-09T07:53:30;9.93;;;6.00;;
44462;SDS011;30170;52.190;8.702;2023-07-09T07:55:57;8.00;;;6.32;;
44462;SDS011;30170;52.190;8.702;2023-07-09T07:58:25;8.48;;;5.93;;
44462;SDS011;30170;52.190;8.702;2023-07-09T08:00:55;6.85;;;5.57;;
44462;SDS011;30170;52.190;8.702;2023-07-09T08:03:25;11.40;;;5.82;;
44462;SDS011;30170;52.190;8.702;2023-07-09T08:05:52;8.77;;;6.00;;
44462;SDS011;30170;52.190;8.702;2023-07-09T08:08:19;7.70;;;5.47;;
44462;SDS011;30170;52.190;8.702;2023-07-09T08:10:47;8.90;;;6.18;;
44462;SDS011;30170;52.190;8.702;2023-07-09T08:13:34;9.93;;;5.57;;
44462;SDS011;30170;52.190;8.702;2023-07-09T08:16:03;8.95;;;5.45;;
44462;SDS011;30170;52.190;8.702;2023-07-09T08:18:31;10.20;;;5.68;;
44462;SDS011;30170;52.190;8.702;2023-07-09T08:20:59;8.95;;;5.85;;
44462;SDS011;30170;52.190;8.702;2023-07-09T08:23:26;6.45;;;5.10;;
44462;SDS011;30170;52.190;8.702;2023-07-09T08:25:59;10.48;;;6.25;;
44462;SDS011;30170;52.190;8.702;2023-07-09T08:28:35;9.30;;;6.25;;
44462;SDS011;30170;52.190;8.702;2023-07-09T08:31:01;8.73;;;5.43;;
44462;SDS011;30170;52.190;8.702;2023-07-09T08:33:29;8.30;;;6.00;;
44462;SDS011;30170;52.190;8.702;2023-07-09T08:35:56;6.93;;;5.70;;
44462;SDS011;30170;52.190;8.702;2023-07-09T08:38:23;8.70;;;6.38;;
44462;SDS011;30170;52.190;8.702;2023-07-09T08:41:01;8.13;;;6.10;;
44462;SDS011;30170;52.190;8.702;2023-07-09T08:49:20;12.30;;;6.28;;
44462;SDS011;30170;52.190;8.702;2023-07-09T08:51:55;8.68;;;6.40;;
44462;SDS011;30170;52.190;8.702;2023-07-09T08:54:28;9.25;;;5.18;;
44462;SDS011;30170;52.190;8.702;2023-07-09T08:59:59;7.50;;;4.65;;
44462;SDS011;30170;52.190;8.702;2023-07-09T09:03:21;7.70;;;5.60;;
44462;SDS011;30170;52.190;8.702;2023-07-09T09:05:26;7.35;;;5.03;;
44462;SDS011;30170;52.190;8.702;2023-07-09T09:08:03;5.85;;;4.55;;
44462;SDS011;30170;52.190;8.702;2023-07-09T09:10:41;9.55;;;4.75;;
44462;SDS011;30170;52.190;8.702;2023-07-09T09:13:17;8.05;;;4.88;;
44462;SDS011;30170;52.190;8.702;2023-07-09T09:15:50;8.30;;;4.75;;
44462;SDS011;30170;52.190;8.702;2023-07-09T09:21:02;6.82;;;4.53;;
44462;SDS011;30170;52.190;8.702;2023-07-09T09:23:54;12.03;;;4.97;;
44462;SDS011;30170;52.190;8.702;2023-07-09T09:26:35;8.05;;;4.53;;
44462;SDS011;30170;52.190;8.702;2023-07-09T09:31:55;5.80;;;4.30;;
44462;SDS011;30170;52.190;8.702;2023-07-09T09:34:27;6.03;;;4.43;;
44462;SDS011;30170;52.190;8.702;2023-07-09T09:36:55;6.15;;;4.20;;
44462;SDS011;30170;52.190;8.702;2023-07-09T09:39:49;8.27;;;4.60;;
44462;SDS011;30170;52.190;8.702;2023-07-09T09:42:36;8.57;;;4.82;;
44462;SDS011;30170;52.190;8.702;2023-07-09T09:45:03;10.60;;;4.57;;
44462;SDS011;30170;52.190;8.702;2023-07-09T09:47:37;7.82;;;4.57;;
44462;SDS011;30170;52.190;8.702;2023-07-09T09:50:04;8.38;;;4.60;;
44462;SDS011;30170;52.190;8.702;2023-07-09T09:52:31;11.45;;;5.50;;
44462;SDS011;30170;52.190;8.702;2023-07-09T09:55:09;7.60;;;4.60;;
44462;SDS011;30170;52.190;8.702;2023-07-09T09:57:39;6.88;;;4.25;;
44462;SDS011;30170;52.190;8.702;2023-07-09T10:00:12;8.98;;;4.68;;
44462;SDS011;30170;52.190;8.702;2023-07-09T10:02:43;6.88;;;4.63;;
44462;SDS011;30170;52.190;8.702;2023-07-09T10:05:12;6.63;;;4.55;;
44462;SDS011;30170;52.190;8.702;2023-07-09T10:07:47;5.97;;;4.32;;
44462;SDS011;30170;52.190;8.702;2023-07-09T10:10:23;7.57;;;4.35;;
44462;SDS011;30170;52.190;8.702;2023-07-09T10:13:04;8.10;;;4.53;;
44462;SDS011;30170;52.190;8.702;2023-07-09T10:15:42;7.47;;;4.30;;
44462;SDS011;30170;52.190;8.702;2023-07-09T10:21:17;9.60;;;4.60;;
44462;SDS011;30170;52.190;8.702;2023-07-09T10:23:59;6.72;;;4.22;;
44462;SDS011;30170;52.190;8.702;2023-07-09T10:26:38;9.02;;;4.80;;
44462;SDS011;30170;52.190;8.702;2023-07-09T10:37:33;6.55;;;4.60;;
44462;SDS011;30170;52.190;8.702;2023-07-09T10:40:14;16.65;;;4.30;;
44462;SDS011;30170;52.190;8.702;2023-07-09T10:42:54;8.35;;;4.47;;
44462;SDS011;30170;52.190;8.702;2023-07-09T10:45:32;7.50;;;4.50;;
44462;SDS011;30170;52.190;8.702;2023-07-09T10:50:52;9.88;;;4.65;;
44462;SDS011;30170;52.190;8.702;2023-07-09T10:55:55;8.85;;;4.88;;
44462;SDS011;30170;52.190;8.702;2023-07-09T11:01:15;7.18;;;4.53;;
44462;SDS011;30170;52.190;8.702;2023-07-09T11:03:51;6.35;;;4.50;;
44462;SDS011;30170;52.190;8.702;2023-07-09T11:06:43;6.03;;;4.70;;
44462;SDS011;30170;52.190;8.702;2023-07-09T11:09:35;6.30;;;4.95;;
44462;SDS011;30170;52.190;8.702;2023-07-09T11:12:06;9.05;;;5.57;;
44462;SDS011;30170;52.190;8.702;2023-07-09T11:14:41;6.05;;;4.50;;
44462;SDS011;30170;52.190;8.702;2023-07-09T11:17:17;5.07;;;4.45;;
44462;SDS011;30170;52.190;8.702;2023-07-09T11:19:47;5.63;;;5.05;;
44462;SDS011;30170;52.190;8.702;2023-07-09T11:22:24;5.70;;;4.88;;
44462;SDS011;30170;52.190;8.702;2023-07-09T11:27:51;6.32;;;4.88;;
44462;SDS011;30170;52.190;8.702;2023-07-09T11:30:25;5.40;;;4.85;;
44462;SDS011;30170;52.190;8.702;2023-07-09T11:33:01;8.00;;;4.93;;
44462;SDS011;30170;52.190;8.702;2023-07-09T11:35:52;7.72;;;5.68;;
44462;SDS011;30170;52.190;8.702;2023-07-09T11:38:38;13.20;;;11.82;;
44462;SDS011;30170;52.190;8.702;2023-07-09T11:49:41;7.97;;;5.25;;
44462;SDS011;30170;52.190;8.702;2023-07-09T11:52:16;5.20;;;4.68;;
44462;SDS011;30170;52.190;8.702;2023-07-09T11:54:48;9.25;;;5.60;;
44462;SDS011;30170;52.190;8.702;2023-07-09T11:57:17;6.78;;;5.55;;
44462;SDS011;30170;52.190;8.702;2023-07-09T11:59:44;6.97;;;5.20;;
44462;SDS011;30170;52.190;8.702;2023-07-09T12:02:14;7.22;;;6.07;;
44462;SDS011;30170;52.190;8.702;2023-07-09T12:04:52;6.97;;;5.80;;
44462;SDS011;30170;52.190;8.702;2023-07-09T12:07:23;8.02;;;5.32;;
44462;SDS011;30170;52.190;8.702;2023-07-09T12:09:52;7.20;;;5.60;;
44462;SDS011;30170;52.190;8.702;2023-07-09T12:12:22;8.00;;;5.18;;
44462;SDS011;30170;52.190;8.702;2023-07-09T12:14:51;7.20;;;5.40;;
44462;SDS011;30170;52.190;8.702;2023-07-09T12:17:26;6.57;;;5.88;;
44462;SDS011;30170;52.190;8.702;2023-07-09T12:20:20;7.15;;;5.60;;
44462;SDS011;30170;52.190;8.702;2023-07-09T12:22:47;7.95;;;5.35;;
44462;SDS011;30170;52.190;8.702;2023-07-09T12:25:21;8.27;;;5.78;;
44462;SDS011;30170;52.190;8.702;2023-07-09T12:27:53;8.07;;;5.78;;
44462;SDS011;30170;52.190;8.702;2023-07-09T12:30:20;7.80;;;5.47;;
44462;SDS011;30170;52.190;8.702;2023-07-09T12:32:48;8.02;;;5.97;;
44462;SDS011;30170;52.190;8.702;2023-07-09T12:35:26;10.18;;;5.38;;
44462;SDS011;30170;52.190;8.702;2023-07-09T12:38:18;6.35;;;5.40;;
44462;SDS011;30170;52.190;8.702;2023-07-09T12:40:48;7.47;;;5.70;;
44462;SDS011;30170;52.190;8.702;2023-07-09T12:43:23;6.80;;;5.77;;
44462;SDS011;30170;52.190;8.702;2023-07-09T12:46:00;7.40;;;6.05;;
44462;SDS011;30170;52.190;8.702;2023-07-09T12:48:29;9.25;;;5.85;;
44462;SDS011;30170;52.190;8.702;2023-07-09T12:50:57;10.13;;;5.35;;
44462;SDS011;30170;52.190;8.702;2023-07-09T12:53:27;7.90;;;5.75;;
44462;SDS011;30170;52.190;8.702;2023-07-09T12:55:56;16.25;;;5.60;;
44462;SDS011;30170;52.190;8.702;2023-07-09T12:58:27;9.05;;;5.60;;
44462;SDS011;30170;52.190;8.702;2023-07-09T13:01:00;6.82;;;5.32;;
44462;SDS011;30170;52.190;8.702;2023-07-09T13:03:33;10.73;;;5.80;;
44462;SDS011;30170;52.190;8.702;2023-07-09T13:06:27;7.18;;;5.32;;
44462;SDS011;30170;52.190;8.702;2023-07-09T13:08:59;7.00;;;4.75;;
44462;SDS011;30170;52.190;8.702;2023-07-09T13:11:36;8.27;;;5.20;;
44462;SDS011;30170;52.190;8.702;2023-07-09T13:14:11;9.10;;;5.03;;
44462;SDS011;30170;52.190;8.702;2023-07-09T13:16:52;7.70;;;5.03;;
44462;SDS011;30170;52.190;8.702;2023-07-09T13:19:32;6.72;;;5.03;;
44462;SDS011;30170;52.190;8.702;2023-07-09T13:21:59;8.80;;;5.70;;
44462;SDS011;30170;52.190;8.702;2023-07-09T13:24:30;8.25;;;5.22;;
44462;SDS011;30170;52.190;8.702;2023-07-09T13:27:03;6.35;;;4.88;;
44462;SDS011;30170;52.190;8.702;2023-07-09T13:29:32;11.75;;;4.97;;
44462;SDS011;30170;52.190;8.702;2023-07-09T13:32:00;7.43;;;5.25;;
44462;SDS011;30170;52.190;8.702;2023-07-09T13:34:27;9.77;;;5.50;;
44462;SDS011;30170;52.190;8.702;2023-07-09T13:36:59;10.38;;;5.05;;
44462;SDS011;30170;52.190;8.702;2023-07-09T13:39:26;5.45;;;4.40;;
44462;SDS011;30170;52.190;8.702;2023-07-09T13:41:54;9.40;;;5.93;;
44462;SDS011;30170;52.190;8.702;2023-07-09T13:44:24;10.55;;;5.53;;
44462;SDS011;30170;52.190;8.702;2023-07-09T13:46:55;6.90;;;4.80;;
44462;SDS011;30170;52.190;8.702;2023-07-09T13:49:30;7.13;;;4.82;;
44462;SDS011;30170;52.190;8.702;2023-07-09T13:51:58;10.60;;;5.90;;
44462;SDS011;30170;52.190;8.702;2023-07-09T13:54:28;7.60;;;4.87;;
44462;SDS011;30170;52.190;8.702;2023-07-09T13:57:03;6.53;;;4.60;;
44462;SDS011;30170;52.190;8.702;2023-07-09T13:59:37;5.57;;;4.97;;
44462;SDS011;30170;52.190;8.702;2023-07-09T14:02:12;7.75;;;4.93;;
44462;SDS011;30170;52.190;8.702;2023-07-09T14:04:44;8.70;;;5.77;;
44462;SDS011;30170;52.190;8.702;2023-07-09T14:07:19;6.22;;;5.22;;
44462;SDS011;30170;52.190;8.702;2023-07-09T14:09:58;6.05;;;5.38;;
44462;SDS011;30170;52.190;8.702;2023-07-09T14:12:27;7.78;;;5.72;;
44462;SDS011;30170;52.190;8.702;2023-07-09T14:15:09;7.10;;;5.53;;
44462;SDS011;30170;52.190;8.702;2023-07-09T14:17:44;8.18;;;5.53;;
44462;SDS011;30170;52.190;8.702;2023-07-09T14:20:15;6.93;;;5.68;;
44462;SDS011;30170;52.190;8.702;2023-07-09T14:22:43;7.75;;;5.30;;
44462;SDS011;30170;52.190;8.702;2023-07-09T14:25:20;8.50;;;5.13;;
44462;SDS011;30170;52.190;8.702;2023-07-09T14:27:54;8.45;;;5.05;;
44462;SDS011;30170;52.190;8.702;2023-07-09T14:30:26;7.53;;;5.47;;
44462;SDS011;30170;52.190;8.702;2023-07-09T14:32:55;5.97;;;4.63;;
44462;SDS011;30170;52.190;8.702;2023-07-09T14:41:04;7.90;;;5.57;;
44462;SDS011;30170;52.190;8.702;2023-07-09T14:43:49;8.57;;;5.15;;
44462;SDS011;30170;52.190;8.702;2023-07-09T14:46:22;7.43;;;5.03;;
44462;SDS011;30170;52.190;8.702;2023-07-09T14:48:49;7.22;;;5.07;;
44462;SDS011;30170;52.190;8.702;2023-07-09T14:51:16;8.40;;;4.95;;
44462;SDS011;30170;52.190;8.702;2023-07-09T14:53:45;6.68;;;5.50;;
44462;SDS011;30170;52.190;8.702;2023-07-09T14:56:22;7.28;;;5.45;;
44462;SDS011;30170;52.190;8.702;2023-07-09T14:59:00;8.27;;;5.75;;
44462;SDS011;30170;52.190;8.702;2023-07-09T15:01:32;8.20;;;5.35;;
44462;SDS011;30170;52.190;8.702;2023-07-09T15:04:07;9.20;;;5.95;;
44462;SDS011;30170;52.190;8.702;2023-07-09T15:06:57;6.45;;;5.15;;
44462;SDS011;30170;52.190;8.702;2023-07-09T15:09:27;8.02;;;6.10;;
44462;SDS011;30170;52.190;8.702;2023-07-09T15:11:55;8.38;;;5.70;;
44462;SDS011;30170;52.190;8.702;2023-07-09T15:18:14;8.90;;;6.00;;
44462;SDS011;30170;52.190;8.702;2023-07-09T15:20:48;9.55;;;5.72;;
44462;SDS011;30170;52.190;8.702;2023-07-09T15:23:39;9.60;;;5.53;;
44462;SDS011;30170;52.190;8.702;2023-07-09T15:26:31;8.15;;;5.78;;
44462;SDS011;30170;52.190;8.702;2023-07-09T15:28:58;9.68;;;5.55;;
44462;SDS011;30170;52.190;8.702;2023-07-09T15:31:29;11.20;;;6.57;;
44462;SDS011;30170;52.190;8.702;2023-07-09T15:33:56;9.20;;;5.68;;
44462;SDS011;30170;52.190;8.702;2023-07-09T15:36:29;11.90;;;5.80;;
44462;SDS011;30170;52.190;8.702;2023-07-09T15:38:57;8.00;;;5.60;;
44462;SDS011;30170;52.190;8.702;2023-07-09T15:41:25;13.00;;;6.15;;
44462;SDS011;30170;52.190;8.702;2023-07-09T15:43:52;11.77;;;6.47;;
44462;SDS011;30170;52.190;8.702;2023-07-09T15:46:20;11.80;;;5.80;;
44462;SDS011;30170;52.190;8.702;2023-07-09T15:48:55;9.45;;;6.18;;
44462;SDS011;30170;52.190;8.702;2023-07-09T15:51:22;11.30;;;5.97;;
44462;SDS011;30170;52.190;8.702;2023-07-09T15:53:49;8.55;;;5.72;;
44462;SDS011;30170;52.190;8.702;2023-07-09T15:59:25;7.50;;;5.75;;
44462;SDS011;30170;52.190;8.702;2023-07-09T16:01:56;9.93;;;6.00;;
44462;SDS011;30170;52.190;8.702;2023-07-09T16:04:28;11.93;;;6.15;;
44462;SDS011;30170;52.190;8.702;2023-07-09T16:06:55;9.05;;;5.80;;
44462;SDS011;30170;52.190;8.702;2023-07-09T16:09:22;9.88;;;6.10;;